createdAt,value
2023-04-28T00:03:07.153Z,99730.44
2023-04-28T00:08:08.986Z,99719.97
2023-04-28T00:13:11.168Z,99720.50
2023-04-28T00:18:12.909Z,99710.22
2023-04-28T00:23:14.688Z,99718.19
2023-04-28T00:28:30.586Z,99697.53
2023-04-28T00:33:34.977Z,99693.13
2023-04-28T00:38:36.916Z,99696.97
2023-04-28T00:43:48.839Z,99686.28
2023-04-28T00:48:50.907Z,99683.78
2023-04-28T00:53:52.742Z,99669.00
2023-04-28T00:58:54.568Z,99669.94
2023-04-28T01:03:56.552Z,99665.13
2023-04-28T01:08:59.274Z,99651.81
2023-04-28T01:14:01.029Z,99651.94
2023-04-28T01:19:08.374Z,99648.09
2023-04-28T01:24:12.426Z,99645.97
2023-04-28T01:29:14.640Z,99638.97
2023-04-28T01:34:17.795Z,99638.44
2023-04-28T01:39:20.363Z,99628.50
2023-04-28T01:44:22.122Z,99620.84
2023-04-28T01:49:24.176Z,99622.84
2023-04-28T01:54:27.360Z,99632.41
2023-04-28T01:59:29.627Z,99629.94
2023-04-28T02:04:31.817Z,99625.84
2023-04-28T02:09:34.154Z,99623.59
2023-04-28T02:14:35.966Z,99613.78
2023-04-28T02:19:38.739Z,99612.97
2023-04-28T02:24:41.006Z,99616.56
2023-04-28T02:29:42.768Z,99608.00
2023-04-28T02:34:44.508Z,99600.09
2023-04-28T02:39:46.526Z,99590.16
2023-04-28T02:44:49.575Z,99591.63
2023-04-28T02:49:51.335Z,99582.59
2023-04-28T02:54:57.148Z,99566.81
2023-04-28T02:59:58.980Z,99579.47
2023-04-28T03:05:04.396Z,99577.91
2023-04-28T03:10:07.058Z,99576.88
2023-04-28T03:15:09.250Z,99582.34
2023-04-28T03:20:13.192Z,99567.19
2023-04-28T03:25:15.263Z,99565.97
2023-04-28T03:30:23.115Z,99558.66
2023-04-28T03:35:25.051Z,99549.56
2023-04-28T03:40:26.936Z,99564.28
2023-04-28T03:45:43.997Z,99556.91
2023-04-28T03:50:45.929Z,99546.16
2023-04-28T03:55:47.979Z,99537.22
2023-04-28T04:00:49.974Z,99537.06
2023-04-28T04:05:51.806Z,99533.94
2023-04-28T04:10:55.004Z,99537.50
2023-04-28T04:15:56.880Z,99528.03
2023-04-28T04:20:59.783Z,99528.69
2023-04-28T04:26:02.403Z,99528.25
2023-04-28T04:31:04.319Z,99528.03
2023-04-28T04:36:06.737Z,99524.41
2023-04-28T04:41:08.454Z,99514.41
2023-04-28T04:46:10.330Z,99529.69
2023-04-28T04:51:12.173Z,99530.63
2023-04-28T04:56:14.585Z,99525.72
2023-04-28T05:01:16.736Z,99520.06
2023-04-28T05:06:18.616Z,99522.75
2023-04-28T05:11:26.369Z,99518.50
2023-04-28T05:16:28.353Z,99529.88
2023-04-28T05:21:42.248Z,99535.06
2023-04-28T05:26:44.099Z,99537.75
2023-04-28T05:31:46.085Z,99538.81
2023-04-28T05:36:47.944Z,99547.28
2023-04-28T05:41:49.972Z,99542.97
2023-04-28T05:46:51.920Z,99551.25
2023-04-28T05:51:59.105Z,99553.88
2023-04-28T05:57:02.011Z,99555.19
2023-04-28T06:02:04.749Z,99537.22
2023-04-28T06:07:06.633Z,99536.09
2023-04-28T06:12:13.686Z,99544.69
2023-04-28T06:17:15.568Z,99538.22
2023-04-28T06:22:18.113Z,99524.88
2023-04-28T06:27:25.207Z,99519.69
2023-04-28T06:32:27.219Z,99536.63
2023-04-28T06:37:28.985Z,99528.00
2023-04-28T06:42:30.754Z,99531.09
2023-04-28T06:47:40.853Z,99510.59
2023-04-28T06:52:44.245Z,99510.97
2023-04-28T06:57:46.303Z,99505.13
2023-04-28T07:02:48.384Z,99487.25
2023-04-28T07:07:50.647Z,99471.59
2023-04-28T07:12:52.489Z,99458.75
2023-04-28T07:17:54.288Z,99479.56
2023-04-28T07:22:56.113Z,99497.13
2023-04-28T07:27:57.964Z,99504.03
2023-04-28T07:32:59.834Z,99514.25
2023-04-28T07:38:02.522Z,99511.09
2023-04-28T07:43:04.567Z,99498.50
2023-04-28T07:48:06.982Z,99512.75
2023-04-28T07:53:10.096Z,99513.22
2023-04-28T07:58:12.489Z,99518.56
2023-04-28T08:03:14.524Z,99512.22
2023-04-28T08:08:16.577Z,99509.72
2023-04-28T08:13:18.655Z,99518.97
2023-04-28T08:18:20.493Z,99512.44
2023-04-28T08:23:22.263Z,99522.72
2023-04-28T08:28:24.051Z,99517.31
2023-04-28T08:33:25.787Z,99520.19
2023-04-28T08:38:27.527Z,99520.00
2023-04-28T08:43:30.223Z,99524.31
2023-04-28T08:48:39.190Z,99530.03
2023-04-28T08:54:11.658Z,99536.97
2023-04-28T08:59:07.095Z,99533.13
2023-04-28T09:04:13.322Z,99536.66
2023-04-28T09:09:32.587Z,99536.81
2023-04-28T09:14:38.242Z,99535.88
2023-04-28T09:19:43.489Z,99528.25
2023-04-28T09:24:47.024Z,99518.34
2023-04-28T09:29:53.630Z,99511.31
2023-04-28T09:34:57.230Z,99515.31
2023-04-28T09:40:13.027Z,99520.81
2023-04-28T09:45:16.365Z,99497.31
2023-04-28T09:50:18.325Z,99504.97
2023-04-28T09:55:20.540Z,99494.03
2023-04-28T10:00:23.500Z,99491.72
2023-04-28T10:05:25.849Z,99482.44
2023-04-28T10:10:28.519Z,99489.50
2023-04-28T10:15:31.420Z,99471.94
2023-04-28T10:20:34.040Z,99442.06
2023-04-28T10:25:37.273Z,99447.69
2023-04-28T10:30:39.061Z,99446.97
2023-04-28T10:35:45.213Z,99444.06
2023-04-28T10:40:51.093Z,99444.19
2023-04-28T10:45:56.156Z,99433.50
2023-04-28T10:51:04.778Z,99436.34
2023-04-28T10:56:07.154Z,99427.25
2023-04-28T11:01:32.271Z,99404.44
2023-04-28T11:06:40.678Z,99396.91
2023-04-28T11:11:54.580Z,99408.09
2023-04-28T11:17:04.235Z,99399.28
2023-04-28T11:22:15.330Z,99387.81
2023-04-28T11:27:24.198Z,99389.25
2023-04-28T11:32:34.254Z,99389.59
2023-04-28T11:37:36.168Z,99381.22
2023-04-28T11:42:47.611Z,99376.41
2023-04-28T11:47:49.739Z,99379.72
2023-04-28T11:52:53.582Z,99364.63
2023-04-28T11:58:17.724Z,99362.75
2023-04-28T12:03:19.614Z,99355.53
2023-04-28T12:08:29.110Z,99346.34
2023-04-28T12:13:30.891Z,99329.78
2023-04-28T12:18:33.153Z,99331.78
2023-04-28T12:23:36.402Z,99321.53
2023-04-28T12:28:44.541Z,99320.75
2023-04-28T12:33:46.274Z,99321.41
2023-04-28T12:38:49.628Z,99310.72
2023-04-28T12:43:51.358Z,99311.84
2023-04-28T12:48:53.427Z,99320.06
2023-04-28T12:53:55.496Z,99320.00
2023-04-28T12:58:58.000Z,99323.78
2023-04-28T13:03:59.921Z,99307.03
2023-04-28T13:09:01.818Z,99308.34
2023-04-28T13:14:05.830Z,99299.75
2023-04-28T13:19:15.284Z,99291.56
2023-04-28T13:24:17.827Z,99273.03
2023-04-28T13:29:19.788Z,99279.44
2023-04-28T13:34:21.850Z,99276.91
2023-04-28T13:39:23.755Z,99286.97
2023-04-28T13:44:28.024Z,99329.34
2023-04-28T13:49:29.961Z,99395.25
2023-04-28T13:54:31.765Z,99341.25
2023-04-28T13:59:34.143Z,99329.44
2023-04-28T14:04:38.194Z,99307.41
2023-04-28T14:09:40.666Z,99319.47
2023-04-28T14:14:42.869Z,99312.75
2023-04-28T14:19:44.715Z,99328.19
2023-04-28T14:24:46.929Z,99304.03
2023-04-28T14:29:49.228Z,99315.19
2023-04-28T14:34:51.382Z,99292.81
2023-04-28T14:39:53.207Z,99293.13
2023-04-28T14:44:54.949Z,99294.78
2023-04-28T14:49:57.988Z,99291.97
2023-04-28T14:55:00.771Z,99297.81
2023-04-28T15:00:03.903Z,99305.22
2023-04-28T15:05:06.306Z,99288.09
2023-04-28T15:10:09.058Z,99280.78
2023-04-28T15:15:11.305Z,99279.75
2023-04-28T15:20:13.128Z,99280.16
2023-04-28T15:25:15.625Z,99280.16
2023-04-28T15:30:18.755Z,99281.88
2023-04-28T15:35:21.261Z,99289.16
2023-04-28T15:40:22.998Z,99293.16
2023-04-28T15:45:24.756Z,99316.91
2023-04-28T15:50:26.968Z,99313.97
2023-04-28T15:55:28.808Z,99296.91
2023-04-28T16:00:30.702Z,99267.50
2023-04-28T16:05:32.458Z,99248.28
2023-04-28T16:10:34.317Z,99246.63
2023-04-28T16:15:36.230Z,99259.13
2023-04-28T16:20:38.227Z,99259.16
2023-04-28T16:25:40.426Z,99265.88
2023-04-28T16:30:43.336Z,99282.38
2023-04-28T16:35:45.071Z,99294.09
2023-04-28T16:40:46.811Z,99270.72
2023-04-28T16:45:49.121Z,99264.91
2023-04-28T16:50:51.087Z,99259.94
2023-04-28T16:55:52.947Z,99257.66
2023-04-28T17:00:54.733Z,99265.84
2023-04-28T17:05:56.499Z,99261.22
2023-04-28T17:11:00.342Z,99260.94
2023-04-28T17:16:02.534Z,99276.81
2023-04-28T17:21:05.542Z,99291.38
2023-04-28T17:26:07.358Z,99286.53
2023-04-28T17:31:09.276Z,99295.69
2023-04-28T17:36:11.398Z,99309.31
2023-04-28T17:41:19.993Z,99312.75
2023-04-28T17:46:22.515Z,99310.34
2023-04-28T17:51:25.406Z,99313.44
2023-04-28T17:56:27.724Z,99323.16
2023-04-28T18:01:29.509Z,99339.69
2023-04-28T18:06:31.264Z,99328.41
2023-04-28T18:11:33.055Z,99348.19
2023-04-28T18:16:34.887Z,99347.09
2023-04-28T18:21:37.563Z,99356.44
2023-04-28T18:26:39.423Z,99362.00
2023-04-28T18:31:45.245Z,99363.78
2023-04-28T18:36:47.063Z,99382.19
2023-04-28T18:41:49.236Z,99385.53
2023-04-28T18:46:51.664Z,99403.72
2023-04-28T18:51:53.484Z,99422.56
2023-04-28T18:56:55.267Z,99432.31
2023-04-28T19:01:57.092Z,99436.53
2023-04-28T19:06:58.900Z,99441.19
2023-04-28T19:12:00.685Z,99466.78
2023-04-28T19:17:02.544Z,99464.47
2023-04-28T19:22:04.652Z,99475.75
2023-04-28T19:27:06.529Z,99490.84
2023-04-28T19:32:09.926Z,99497.72
2023-04-28T19:37:13.003Z,99508.19
2023-04-28T19:42:14.757Z,99513.44
2023-04-28T19:47:23.968Z,99520.97
2023-04-28T19:52:26.404Z,99520.63
2023-04-28T19:57:28.305Z,99522.00
2023-04-28T20:02:30.357Z,99527.53
2023-04-28T20:07:32.205Z,99535.47
2023-04-28T20:12:33.970Z,99540.59
2023-04-28T20:17:35.970Z,99533.31
2023-04-28T20:22:37.767Z,99531.75
2023-04-28T20:27:39.620Z,99537.63
2023-04-28T20:32:41.402Z,99537.03
2023-04-28T20:37:43.166Z,99531.78
2023-04-28T20:42:45.121Z,99533.34
2023-04-28T20:47:46.943Z,99541.13
2023-04-28T20:52:48.741Z,99533.91
2023-04-28T20:57:50.583Z,99534.84
2023-04-28T21:02:52.520Z,99547.97
2023-04-28T21:07:54.616Z,99530.28
2023-04-28T21:12:56.346Z,99536.94
2023-04-28T21:17:58.087Z,99544.47
2023-04-28T21:22:59.921Z,99534.78
2023-04-28T21:28:01.972Z,99540.28
2023-04-28T21:33:03.967Z,99542.84
2023-04-28T21:38:05.840Z,99547.09
2023-04-28T21:43:08.307Z,99546.91
2023-04-28T21:48:11.134Z,99548.47
2023-04-28T21:53:13.172Z,99548.91
2023-04-28T21:58:15.266Z,99540.91
2023-04-28T22:03:17.216Z,99549.53
2023-04-28T22:08:19.527Z,99538.28
2023-04-28T22:13:22.801Z,99535.81
2023-04-28T22:18:24.905Z,99542.38
2023-04-28T22:23:26.684Z,99541.53
2023-04-28T22:28:28.473Z,99555.34
2023-04-28T22:33:30.201Z,99544.25
2023-04-28T22:38:31.938Z,99552.00
2023-04-28T22:43:33.755Z,99547.56
2023-04-28T22:48:35.499Z,99538.50
2023-04-28T22:53:37.220Z,99541.00
2023-04-28T22:58:38.948Z,99542.25
2023-04-28T23:03:41.578Z,99546.50
2023-04-28T23:08:43.798Z,99555.09
2023-04-28T23:13:45.882Z,99553.59
2023-04-28T23:18:47.612Z,99563.16
2023-04-28T23:23:49.359Z,99566.59
2023-04-28T23:28:51.130Z,99567.94
2023-04-28T23:33:53.282Z,99579.41
2023-04-28T23:38:55.097Z,99581.06
2023-04-28T23:43:56.885Z,99577.69
2023-04-28T23:48:58.609Z,99572.59
2023-04-28T23:54:01.594Z,99578.78
2023-04-28T23:59:03.415Z,99583.13
